Strona główna
METAR-TAF:

METAR-TAF

Lotnisko :

Niamey, Niger

Port lotniczy Niamey

Szerokość geograficzna: 13-29N, Długość geograficzna: 002-10E, wysokość: 223 m

Aktualna obserwacja pogody

Raport powstał 35 minut temu, godzina 03:00 UTC
Wiatr 5 kt od wschód
Temperatura 18°C
Wilgotność 19%
Ciśnienie 1013 hPa
Widzialność: 4500 m
pył

METAR: DRRN 180300Z 10005KT 4500 DU NSC 18/M06 Q1013 NOSIG

czas: 04:35 (03:35 UTC)

Prognoza

Raport powstał 4 godziny i 35 minut temu, godzina 23:00 UTC
Prognoza ważna od 18 godzina 00 UTC do 19 godzina 06 UTC
Wiatr 8 kt od wschodnio-północny wschód
Widzialność: 2000 m
pył
Stopniowe zmiany
od 18 godzina 02 UTC do 18 godzina 04 UTC
Widzialność: 3500 m
Przejściowo
od 18 godzina 08 UTC do 18 godzina 12 UTC
Wiatr 18 kt od wschód
Widzialność: 2500 m
zawieja pyłowa

TAF: DRRN 172300Z 1800/1906 06008KT 2000 DU NSC BECMG 1802/1804 3500 TEMPO 1808/1812 10018KT 2500 BLDU

Obserwacja i prognoza pogody dla ponad 4000 lotnisk (raport METAR i TAF).

Dostępne stacje oznaczono żółtymi i czerwonymi punktami na mapie.

Najedź kursorem aby zobaczyć nazwę stacji.

Kliknij aby zobaczyć obserwacje i prognozy pogody.

Aby zmienić mapę: kliknij na zielony przycisk z czarnym krzyżykiem, aby powiększyć; na zielony przycisk z myślnikiem, aby pomniejszyć; na zielone strzałki, aby przejść do map sąsiednich.


METAR-TAF: